Terminal Aerodrome Forecast
Issued by NWS Wilmington, OH

Current Version | Previous Version | Graphics & Text | Print | Product List | Glossary On
Versions: 1 2 3 4 5 6 7 8 9 10 11 12 13 14 15 16 17 18 19 20 21 22 23 24 25 26 27 28 29 30 31 32 33 34 35 36
000
FTUS41 KILN 281125
TAFCVG
TAF
KCVG 281125Z 2812/2918 16004KT 2SM BR OVC008
     FM281500 20005KT 3SM BR OVC015
     FM281600 23006KT P6SM OVC018
     FM281800 25008KT P6SM VCTS BKN040CB
     FM282200 27009KT P6SM SCT050
     FM290800 28004KT P6SM OVC012
     FM291400 32006KT P6SM BKN025=

USA.gov is the U.S. government's official web portal to all federal, state and local government web resources and services.